sensor_id;sensor_type;location;lat;lon;timestamp;temperature;humidity
33865;DHT22;20159;51.072;13.526;2023-04-22T00:01:43;8.90;82.60
33865;DHT22;20159;51.072;13.526;2023-04-22T00:04:08;8.90;83.30
33865;DHT22;20159;51.072;13.526;2023-04-22T00:06:34;8.90;82.80
33865;DHT22;20159;51.072;13.526;2023-04-22T00:09:00;8.90;82.90
33865;DHT22;20159;51.072;13.526;2023-04-22T00:11:26;8.80;82.90
33865;DHT22;20159;51.072;13.526;2023-04-22T00:13:51;8.80;83.10
33865;DHT22;20159;51.072;13.526;2023-04-22T00:16:17;8.70;83.20
33865;DHT22;20159;51.072;13.526;2023-04-22T00:18:42;8.70;83.30
33865;DHT22;20159;51.072;13.526;2023-04-22T00:21:08;8.60;83.40
33865;DHT22;20159;51.072;13.526;2023-04-22T00:23:34;8.60;83.70
33865;DHT22;20159;51.072;13.526;2023-04-22T00:26:00;8.60;83.90
33865;DHT22;20159;51.072;13.526;2023-04-22T00:28:26;6.80;83.20
33865;DHT22;20159;51.072;13.526;2023-04-22T00:30:52;8.50;84.40
33865;DHT22;20159;51.072;13.526;2023-04-22T00:33:17;8.50;84.50
33865;DHT22;20159;51.072;13.526;2023-04-22T00:35:45;8.50;84.70
33865;DHT22;20159;51.072;13.526;2023-04-22T00:38:10;8.40;84.80
33865;DHT22;20159;51.072;13.526;2023-04-22T00:40:36;8.40;84.80
33865;DHT22;20159;51.072;13.526;2023-04-22T00:43:02;8.40;85.00
33865;DHT22;20159;51.072;13.526;2023-04-22T00:45:27;8.40;85.40
33865;DHT22;20159;51.072;13.526;2023-04-22T00:47:55;8.20;85.60
33865;DHT22;20159;51.072;13.526;2023-04-22T00:50:21;8.40;85.90
33865;DHT22;20159;51.072;13.526;2023-04-22T00:52:46;8.30;85.80
33865;DHT22;20159;51.072;13.526;2023-04-22T00:55:12;8.30;85.90
33865;DHT22;20159;51.072;13.526;2023-04-22T00:57:39;8.30;85.90
33865;DHT22;20159;51.072;13.526;2023-04-22T01:00:05;8.30;86.00
33865;DHT22;20159;51.072;13.526;2023-04-22T01:02:31;8.30;86.20
33865;DHT22;20159;51.072;13.526;2023-04-22T01:04:57;8.30;86.40
33865;DHT22;20159;51.072;13.526;2023-04-22T01:07:23;8.30;86.50
33865;DHT22;20159;51.072;13.526;2023-04-22T01:09:49;8.30;86.40
33865;DHT22;20159;51.072;13.526;2023-04-22T01:12:14;8.30;86.60
33865;DHT22;20159;51.072;13.526;2023-04-22T01:14:40;8.30;86.60
33865;DHT22;20159;51.072;13.526;2023-04-22T01:17:06;8.30;86.70
33865;DHT22;20159;51.072;13.526;2023-04-22T01:19:32;8.30;86.60
33865;DHT22;20159;51.072;13.526;2023-04-22T01:21:58;8.30;86.70
33865;DHT22;20159;51.072;13.526;2023-04-22T01:24:26;8.20;86.70
33865;DHT22;20159;51.072;13.526;2023-04-22T01:26:52;8.30;86.80
33865;DHT22;20159;51.072;13.526;2023-04-22T01:29:18;8.20;86.80
33865;DHT22;20159;51.072;13.526;2023-04-22T01:31:43;8.20;86.80
33865;DHT22;20159;51.072;13.526;2023-04-22T01:34:10;8.20;86.90
33865;DHT22;20159;51.072;13.526;2023-04-22T01:36:35;8.20;87.00
33865;DHT22;20159;51.072;13.526;2023-04-22T01:39:01;8.20;87.10
33865;DHT22;20159;51.072;13.526;2023-04-22T01:41:26;8.20;87.30
33865;DHT22;20159;51.072;13.526;2023-04-22T01:43:52;8.10;87.40
33865;DHT22;20159;51.072;13.526;2023-04-22T01:46:18;8.20;87.60
33865;DHT22;20159;51.072;13.526;2023-04-22T01:48:43;8.20;87.60
33865;DHT22;20159;51.072;13.526;2023-04-22T01:51:15;8.20;87.60
33865;DHT22;20159;51.072;13.526;2023-04-22T01:53:41;6.80;86.70
33865;DHT22;20159;51.072;13.526;2023-04-22T01:56:07;8.20;87.40
33865;DHT22;20159;51.072;13.526;2023-04-22T01:58:32;8.20;87.40
33865;DHT22;20159;51.072;13.526;2023-04-22T02:00:58;8.10;87.40
33865;DHT22;20159;51.072;13.526;2023-04-22T02:03:23;8.10;87.40
33865;DHT22;20159;51.072;13.526;2023-04-22T02:05:49;8.10;87.80
33865;DHT22;20159;51.072;13.526;2023-04-22T02:08:15;8.10;87.30
33865;DHT22;20159;51.072;13.526;2023-04-22T02:10:40;8.10;87.60
33865;DHT22;20159;51.072;13.526;2023-04-22T02:13:06;8.00;87.20
33865;DHT22;20159;51.072;13.526;2023-04-22T02:15:31;8.00;87.50
33865;DHT22;20159;51.072;13.526;2023-04-22T02:17:56;8.10;87.20
33865;DHT22;20159;51.072;13.526;2023-04-22T02:20:22;8.00;87.30
33865;DHT22;20159;51.072;13.526;2023-04-22T02:22:48;8.00;87.60
33865;DHT22;20159;51.072;13.526;2023-04-22T02:25:15;7.90;87.80
33865;DHT22;20159;51.072;13.526;2023-04-22T02:27:41;7.90;87.90
33865;DHT22;20159;51.072;13.526;2023-04-22T02:30:08;7.90;87.70
33865;DHT22;20159;51.072;13.526;2023-04-22T02:32:34;7.80;87.60
33865;DHT22;20159;51.072;13.526;2023-04-22T02:35:01;7.80;87.50
33865;DHT22;20159;51.072;13.526;2023-04-22T02:37:27;7.80;87.70
33865;DHT22;20159;51.072;13.526;2023-04-22T02:39:52;7.70;87.80
33865;DHT22;20159;51.072;13.526;2023-04-22T02:42:18;7.70;88.00
33865;DHT22;20159;51.072;13.526;2023-04-22T02:44:43;7.70;88.10
33865;DHT22;20159;51.072;13.526;2023-04-22T02:47:09;7.60;88.10
33865;DHT22;20159;51.072;13.526;2023-04-22T02:49:34;7.60;88.70
33865;DHT22;20159;51.072;13.526;2023-04-22T02:52:00;7.60;88.40
33865;DHT22;20159;51.072;13.526;2023-04-22T02:54:25;7.50;88.60
33865;DHT22;20159;51.072;13.526;2023-04-22T02:56:51;7.50;88.70
33865;DHT22;20159;51.072;13.526;2023-04-22T02:59:16;7.50;88.80
33865;DHT22;20159;51.072;13.526;2023-04-22T03:01:42;7.50;88.80
33865;DHT22;20159;51.072;13.526;2023-04-22T03:04:07;7.50;88.80
33865;DHT22;20159;51.072;13.526;2023-04-22T03:06:33;7.40;88.90
33865;DHT22;20159;51.072;13.526;2023-04-22T03:08:58;7.40;89.00
33865;DHT22;20159;51.072;13.526;2023-04-22T03:11:24;7.40;89.20
33865;DHT22;20159;51.072;13.526;2023-04-22T03:13:49;7.40;90.00
33865;DHT22;20159;51.072;13.526;2023-04-22T03:16:16;7.30;89.60
33865;DHT22;20159;51.072;13.526;2023-04-22T03:18:42;7.30;89.60
33865;DHT22;20159;51.072;13.526;2023-04-22T03:21:07;7.30;89.60
33865;DHT22;20159;51.072;13.526;2023-04-22T03:23:33;7.30;89.60
33865;DHT22;20159;51.072;13.526;2023-04-22T03:25:58;7.30;89.70
33865;DHT22;20159;51.072;13.526;2023-04-22T03:28:24;7.30;89.80
33865;DHT22;20159;51.072;13.526;2023-04-22T03:30:49;7.20;90.10
33865;DHT22;20159;51.072;13.526;2023-04-22T03:33:15;7.20;89.70
33865;DHT22;20159;51.072;13.526;2023-04-22T03:35:40;7.20;89.80
33865;DHT22;20159;51.072;13.526;2023-04-22T03:38:06;7.20;89.90
33865;DHT22;20159;51.072;13.526;2023-04-22T03:40:32;7.20;90.00
33865;DHT22;20159;51.072;13.526;2023-04-22T03:42:57;7.20;90.10
33865;DHT22;20159;51.072;13.526;2023-04-22T03:45:23;7.20;90.20
33865;DHT22;20159;51.072;13.526;2023-04-22T03:47:48;7.20;90.30
33865;DHT22;20159;51.072;13.526;2023-04-22T03:50:13;7.20;90.40
33865;DHT22;20159;51.072;13.526;2023-04-22T03:52:39;7.20;90.40
33865;DHT22;20159;51.072;13.526;2023-04-22T03:55:05;7.20;90.50
33865;DHT22;20159;51.072;13.526;2023-04-22T03:57:30;7.20;90.60
33865;DHT22;20159;51.072;13.526;2023-04-22T03:59:56;7.20;90.70
33865;DHT22;20159;51.072;13.526;2023-04-22T04:02:21;7.20;90.70
33865;DHT22;20159;51.072;13.526;2023-04-22T04:04:47;7.30;90.60
33865;DHT22;20159;51.072;13.526;2023-04-22T04:07:12;7.30;90.50
33865;DHT22;20159;51.072;13.526;2023-04-22T04:09:38;7.30;90.50
33865;DHT22;20159;51.072;13.526;2023-04-22T04:12:03;7.30;90.60
33865;DHT22;20159;51.072;13.526;2023-04-22T04:14:29;7.30;90.60
33865;DHT22;20159;51.072;13.526;2023-04-22T04:16:54;7.30;90.70
33865;DHT22;20159;51.072;13.526;2023-04-22T04:19:20;7.30;90.80
33865;DHT22;20159;51.072;13.526;2023-04-22T04:21:45;7.40;90.80
33865;DHT22;20159;51.072;13.526;2023-04-22T04:24:11;7.40;90.90
33865;DHT22;20159;51.072;13.526;2023-04-22T04:26:36;7.50;91.00
33865;DHT22;20159;51.072;13.526;2023-04-22T04:29:02;7.50;91.00
33865;DHT22;20159;51.072;13.526;2023-04-22T04:31:29;7.50;91.10
33865;DHT22;20159;51.072;13.526;2023-04-22T04:33:55;7.60;91.20
33865;DHT22;20159;51.072;13.526;2023-04-22T04:36:22;8.90;91.60
33865;DHT22;20159;51.072;13.526;2023-04-22T04:38:50;7.80;91.60
33865;DHT22;20159;51.072;13.526;2023-04-22T04:41:16;8.00;91.80
33865;DHT22;20159;51.072;13.526;2023-04-22T04:43:41;8.20;91.80
33865;DHT22;20159;51.072;13.526;2023-04-22T04:46:10;8.40;91.80
33865;DHT22;20159;51.072;13.526;2023-04-22T04:48:36;8.60;91.60
33865;DHT22;20159;51.072;13.526;2023-04-22T04:51:01;8.80;91.50
33865;DHT22;20159;51.072;13.526;2023-04-22T04:53:26;9.00;91.30
33865;DHT22;20159;51.072;13.526;2023-04-22T04:55:52;9.20;91.50
33865;DHT22;20159;51.072;13.526;2023-04-22T04:58:18;9.50;91.10
33865;DHT22;20159;51.072;13.526;2023-04-22T05:00:43;9.70;91.00
33865;DHT22;20159;51.072;13.526;2023-04-22T05:03:08;10.00;90.90
33865;DHT22;20159;51.072;13.526;2023-04-22T05:05:34;10.20;90.80
33865;DHT22;20159;51.072;13.526;2023-04-22T05:08:00;10.50;90.70
33865;DHT22;20159;51.072;13.526;2023-04-22T05:10:25;10.70;90.50
33865;DHT22;20159;51.072;13.526;2023-04-22T05:12:51;11.00;90.30
33865;DHT22;20159;51.072;13.526;2023-04-22T05:15:16;11.30;89.70
33865;DHT22;20159;51.072;13.526;2023-04-22T05:17:42;11.70;89.10
33865;DHT22;20159;51.072;13.526;2023-04-22T05:20:08;12.00;87.70
33865;DHT22;20159;51.072;13.526;2023-04-22T05:22:34;12.40;86.50
33865;DHT22;20159;51.072;13.526;2023-04-22T05:25:02;12.70;86.70
33865;DHT22;20159;51.072;13.526;2023-04-22T05:27:28;13.10;85.80
33865;DHT22;20159;51.072;13.526;2023-04-22T05:29:54;13.30;85.30
33865;DHT22;20159;51.072;13.526;2023-04-22T05:32:20;13.80;84.50
33865;DHT22;20159;51.072;13.526;2023-04-22T05:34:46;14.10;84.30
33865;DHT22;20159;51.072;13.526;2023-04-22T05:37:11;14.50;83.20
33865;DHT22;20159;51.072;13.526;2023-04-22T05:39:37;14.90;82.00
33865;DHT22;20159;51.072;13.526;2023-04-22T05:42:02;15.40;81.40
33865;DHT22;20159;51.072;13.526;2023-04-22T05:44:28;15.80;79.90
33865;DHT22;20159;51.072;13.526;2023-04-22T05:46:53;16.20;78.60
33865;DHT22;20159;51.072;13.526;2023-04-22T05:49:19;16.70;77.50
33865;DHT22;20159;51.072;13.526;2023-04-22T05:51:44;17.00;75.70
33865;DHT22;20159;51.072;13.526;2023-04-22T05:54:10;17.50;74.70
33865;DHT22;20159;51.072;13.526;2023-04-22T05:56:35;17.80;74.80
33865;DHT22;20159;51.072;13.526;2023-04-22T05:59:01;18.20;73.60
33865;DHT22;20159;51.072;13.526;2023-04-22T06:01:26;18.60;73.60
33865;DHT22;20159;51.072;13.526;2023-04-22T06:03:52;19.00;70.90
33865;DHT22;20159;51.072;13.526;2023-04-22T06:06:17;19.40;69.70
33865;DHT22;20159;51.072;13.526;2023-04-22T06:08:43;19.80;68.40
33865;DHT22;20159;51.072;13.526;2023-04-22T06:11:09;20.10;67.20
33865;DHT22;20159;51.072;13.526;2023-04-22T06:13:34;20.50;66.30
33865;DHT22;20159;51.072;13.526;2023-04-22T06:16:00;20.80;65.70
33865;DHT22;20159;51.072;13.526;2023-04-22T06:18:26;21.20;65.70
33865;DHT22;20159;51.072;13.526;2023-04-22T06:20:51;21.50;63.20
33865;DHT22;20159;51.072;13.526;2023-04-22T06:23:17;21.90;62.90
33865;DHT22;20159;51.072;13.526;2023-04-22T06:25:42;22.20;60.90
33865;DHT22;20159;51.072;13.526;2023-04-22T06:28:08;22.50;60.20
33865;DHT22;20159;51.072;13.526;2023-04-22T06:30:33;22.70;58.40
33865;DHT22;20159;51.072;13.526;2023-04-22T06:32:59;25.00;58.90
33865;DHT22;20159;51.072;13.526;2023-04-22T06:35:25;23.10;57.90
33865;DHT22;20159;51.072;13.526;2023-04-22T06:37:51;23.40;56.40
33865;DHT22;20159;51.072;13.526;2023-04-22T06:40:16;23.60;55.10
33865;DHT22;20159;51.072;13.526;2023-04-22T06:42:42;23.80;54.50
33865;DHT22;20159;51.072;13.526;2023-04-22T06:45:07;24.00;54.00
33865;DHT22;20159;51.072;13.526;2023-04-22T06:47:37;24.30;53.50
33865;DHT22;20159;51.072;13.526;2023-04-22T06:50:03;24.50;53.20
33865;DHT22;20159;51.072;13.526;2023-04-22T06:52:28;24.70;51.40
33865;DHT22;20159;51.072;13.526;2023-04-22T06:54:54;24.90;50.80
33865;DHT22;20159;51.072;13.526;2023-04-22T06:57:19;25.00;50.30
33865;DHT22;20159;51.072;13.526;2023-04-22T06:59:45;25.10;49.20
33865;DHT22;20159;51.072;13.526;2023-04-22T07:02:10;25.20;48.80
33865;DHT22;20159;51.072;13.526;2023-04-22T07:04:36;25.30;48.80
33865;DHT22;20159;51.072;13.526;2023-04-22T07:07:01;25.50;49.90
33865;DHT22;20159;51.072;13.526;2023-04-22T07:09:27;25.60;49.00
33865;DHT22;20159;51.072;13.526;2023-04-22T07:11:53;25.80;48.80
33865;DHT22;20159;51.072;13.526;2023-04-22T07:14:18;26.00;48.20
33865;DHT22;20159;51.072;13.526;2023-04-22T07:16:45;26.20;48.20
33865;DHT22;20159;51.072;13.526;2023-04-22T07:19:10;26.40;47.80
33865;DHT22;20159;51.072;13.526;2023-04-22T07:21:35;26.60;47.90
33865;DHT22;20159;51.072;13.526;2023-04-22T07:24:01;26.70;47.90
33865;DHT22;20159;51.072;13.526;2023-04-22T07:26:27;26.90;46.50
33865;DHT22;20159;51.072;13.526;2023-04-22T07:28:52;27.10;45.70
33865;DHT22;20159;51.072;13.526;2023-04-22T07:31:17;27.20;45.70
33865;DHT22;20159;51.072;13.526;2023-04-22T07:33:43;27.30;44.90
33865;DHT22;20159;51.072;13.526;2023-04-22T07:36:09;27.40;44.80
33865;DHT22;20159;51.072;13.526;2023-04-22T07:38:35;27.50;45.00
33865;DHT22;20159;51.072;13.526;2023-04-22T07:41:01;27.50;45.20
33865;DHT22;20159;51.072;13.526;2023-04-22T07:43:26;27.60;45.60
33865;DHT22;20159;51.072;13.526;2023-04-22T07:45:52;27.70;45.60
33865;DHT22;20159;51.072;13.526;2023-04-22T07:48:17;27.80;45.80
33865;DHT22;20159;51.072;13.526;2023-04-22T07:50:43;28.00;45.20
33865;DHT22;20159;51.072;13.526;2023-04-22T07:53:08;28.20;46.00
33865;DHT22;20159;51.072;13.526;2023-04-22T07:55:35;28.30;44.30
33865;DHT22;20159;51.072;13.526;2023-04-22T07:58:00;28.50;44.10
33865;DHT22;20159;51.072;13.526;2023-04-22T08:00:31;28.60;44.30
33865;DHT22;20159;51.072;13.526;2023-04-22T08:02:57;28.70;43.80
33865;DHT22;20159;51.072;13.526;2023-04-22T08:05:22;28.80;44.30
33865;DHT22;20159;51.072;13.526;2023-04-22T08:07:48;28.90;43.80
33865;DHT22;20159;51.072;13.526;2023-04-22T08:10:13;29.00;44.10
33865;DHT22;20159;51.072;13.526;2023-04-22T08:12:39;29.10;43.40
33865;DHT22;20159;51.072;13.526;2023-04-22T08:15:05;29.20;43.50
33865;DHT22;20159;51.072;13.526;2023-04-22T08:17:30;29.30;42.50
33865;DHT22;20159;51.072;13.526;2023-04-22T08:19:56;29.40;42.50
33865;DHT22;20159;51.072;13.526;2023-04-22T08:22:22;29.50;42.10
33865;DHT22;20159;51.072;13.526;2023-04-22T08:24:48;29.50;42.00
33865;DHT22;20159;51.072;13.526;2023-04-22T08:27:13;29.60;41.70
33865;DHT22;20159;51.072;13.526;2023-04-22T08:29:39;29.60;42.70
33865;DHT22;20159;51.072;13.526;2023-04-22T08:32:04;29.70;42.00
33865;DHT22;20159;51.072;13.526;2023-04-22T08:34:30;29.80;41.80
33865;DHT22;20159;51.072;13.526;2023-04-22T08:36:56;29.90;41.80
33865;DHT22;20159;51.072;13.526;2023-04-22T08:39:21;30.00;41.60
33865;DHT22;20159;51.072;13.526;2023-04-22T08:41:48;30.10;41.50
33865;DHT22;20159;51.072;13.526;2023-04-22T08:44:15;30.20;40.90
33865;DHT22;20159;51.072;13.526;2023-04-22T08:46:42;30.20;40.20
33865;DHT22;20159;51.072;13.526;2023-04-22T08:49:13;30.20;40.10
33865;DHT22;20159;51.072;13.526;2023-04-22T08:51:40;30.30;39.60
33865;DHT22;20159;51.072;13.526;2023-04-22T08:54:06;30.20;39.30
33865;DHT22;20159;51.072;13.526;2023-04-22T08:56:33;30.20;39.60
33865;DHT22;20159;51.072;13.526;2023-04-22T08:58:59;30.20;39.80
33865;DHT22;20159;51.072;13.526;2023-04-22T09:01:26;30.20;39.20
33865;DHT22;20159;51.072;13.526;2023-04-22T09:03:53;30.20;38.60
33865;DHT22;20159;51.072;13.526;2023-04-22T09:06:21;28.00;37.20
33865;DHT22;20159;51.072;13.526;2023-04-22T09:08:47;30.20;38.80
33865;DHT22;20159;51.072;13.526;2023-04-22T09:11:14;30.10;38.60
33865;DHT22;20159;51.072;13.526;2023-04-22T09:13:41;30.10;38.90
33865;DHT22;20159;51.072;13.526;2023-04-22T09:16:06;30.10;38.50
33865;DHT22;20159;51.072;13.526;2023-04-22T09:18:41;30.20;39.10
33865;DHT22;20159;51.072;13.526;2023-04-22T09:21:07;30.20;38.60
33865;DHT22;20159;51.072;13.526;2023-04-22T09:23:42;30.30;38.60
33865;DHT22;20159;51.072;13.526;2023-04-22T09:26:08;30.50;37.80
33865;DHT22;20159;51.072;13.526;2023-04-22T09:28:35;30.60;37.20
33865;DHT22;20159;51.072;13.526;2023-04-22T09:31:01;30.80;36.60
33865;DHT22;20159;51.072;13.526;2023-04-22T09:33:27;30.90;37.10
33865;DHT22;20159;51.072;13.526;2023-04-22T09:35:55;31.10;36.10
33865;DHT22;20159;51.072;13.526;2023-04-22T09:38:20;31.10;35.60
33865;DHT22;20159;51.072;13.526;2023-04-22T09:40:46;31.20;35.70
33865;DHT22;20159;51.072;13.526;2023-04-22T09:43:17;31.30;36.40
33865;DHT22;20159;51.072;13.526;2023-04-22T09:45:43;31.40;36.60
33865;DHT22;20159;51.072;13.526;2023-04-22T09:48:14;31.50;35.80
33865;DHT22;20159;51.072;13.526;2023-04-22T09:50:46;31.70;34.30
33865;DHT22;20159;51.072;13.526;2023-04-22T09:53:17;31.80;33.90
33865;DHT22;20159;51.072;13.526;2023-04-22T09:55:48;31.80;33.20
33865;DHT22;20159;51.072;13.526;2023-04-22T09:58:18;31.80;33.20
33865;DHT22;20159;51.072;13.526;2023-04-22T10:00:48;31.70;33.30
33865;DHT22;20159;51.072;13.526;2023-04-22T10:03:14;31.70;35.80
33865;DHT22;20159;51.072;13.526;2023-04-22T10:05:40;31.60;34.20
33865;DHT22;20159;51.072;13.526;2023-04-22T10:08:08;31.60;33.50
33865;DHT22;20159;51.072;13.526;2023-04-22T10:10:34;31.60;33.20
33865;DHT22;20159;51.072;13.526;2023-04-22T10:13:01;31.60;33.40
33865;DHT22;20159;51.072;13.526;2023-04-22T10:15:34;31.50;32.80
33865;DHT22;20159;51.072;13.526;2023-04-22T10:18:02;31.40;32.60
33865;DHT22;20159;51.072;13.526;2023-04-22T10:20:30;31.30;32.40
33865;DHT22;20159;51.072;13.526;2023-04-22T10:22:57;31.30;33.30
33865;DHT22;20159;51.072;13.526;2023-04-22T10:25:26;31.30;33.20
33865;DHT22;20159;51.072;13.526;2023-04-22T10:28:02;31.20;33.30
33865;DHT22;20159;51.072;13.526;2023-04-22T10:30:31;31.20;33.10
33865;DHT22;20159;51.072;13.526;2023-04-22T10:33:37;31.20;33.40
33865;DHT22;20159;51.072;13.526;2023-04-22T10:36:19;31.20;33.50
33865;DHT22;20159;51.072;13.526;2023-04-22T10:41:29;31.00;32.40
33865;DHT22;20159;51.072;13.526;2023-04-22T10:43:57;30.80;32.90
33865;DHT22;20159;51.072;13.526;2023-04-22T10:49:19;30.50;32.10
33865;DHT22;20159;51.072;13.526;2023-04-22T10:51:52;30.30;33.00
33865;DHT22;20159;51.072;13.526;2023-04-22T10:57:11;30.00;33.40
33865;DHT22;20159;51.072;13.526;2023-04-22T10:59:44;29.90;33.70
33865;DHT22;20159;51.072;13.526;2023-04-22T11:02:12;29.90;34.40
33865;DHT22;20159;51.072;13.526;2023-04-22T11:04:38;29.90;34.50
33865;DHT22;20159;51.072;13.526;2023-04-22T11:09:52;29.90;35.20
33865;DHT22;20159;51.072;13.526;2023-04-22T11:15:16;30.00;33.50
33865;DHT22;20159;51.072;13.526;2023-04-22T11:17:45;29.90;33.70
33865;DHT22;20159;51.072;13.526;2023-04-22T11:20:12;30.00;33.70
33865;DHT22;20159;51.072;13.526;2023-04-22T11:22:41;29.90;34.20
33865;DHT22;20159;51.072;13.526;2023-04-22T11:25:07;29.90;33.70
33865;DHT22;20159;51.072;13.526;2023-04-22T11:27:34;29.90;33.00
33865;DHT22;20159;51.072;13.526;2023-04-22T11:32:38;29.60;32.30
33865;DHT22;20159;51.072;13.526;2023-04-22T11:35:06;29.40;33.40
33865;DHT22;20159;51.072;13.526;2023-04-22T11:37:43;29.30;33.20
33865;DHT22;20159;51.072;13.526;2023-04-22T11:40:11;29.20;33.30
33865;DHT22;20159;51.072;13.526;2023-04-22T11:42:37;29.10;33.50
33865;DHT22;20159;51.072;13.526;2023-04-22T11:45:05;29.10;33.40
33865;DHT22;20159;51.072;13.526;2023-04-22T11:47:31;29.00;33.50
33865;DHT22;20159;51.072;13.526;2023-04-22T11:49:58;28.90;32.90
33865;DHT22;20159;51.072;13.526;2023-04-22T11:53:02;28.90;33.20
33865;DHT22;20159;51.072;13.526;2023-04-22T11:55:34;28.80;33.80
33865;DHT22;20159;51.072;13.526;2023-04-22T11:58:11;28.80;33.30
33865;DHT22;20159;51.072;13.526;2023-04-22T12:00:48;28.70;33.20
33865;DHT22;20159;51.072;13.526;2023-04-22T12:03:15;28.70;33.20
33865;DHT22;20159;51.072;13.526;2023-04-22T12:05:46;28.60;34.00
33865;DHT22;20159;51.072;13.526;2023-04-22T12:08:31;28.60;33.60
33865;DHT22;20159;51.072;13.526;2023-04-22T12:10:58;26.30;31.20
33865;DHT22;20159;51.072;13.526;2023-04-22T12:13:26;28.50;34.20
33865;DHT22;20159;51.072;13.526;2023-04-22T12:16:01;28.40;33.90
33865;DHT22;20159;51.072;13.526;2023-04-22T12:18:34;28.30;32.90
33865;DHT22;20159;51.072;13.526;2023-04-22T12:23:29;28.30;33.10
33865;DHT22;20159;51.072;13.526;2023-04-22T12:25:56;28.20;33.40
33865;DHT22;20159;51.072;13.526;2023-04-22T12:28:21;28.30;33.60
33865;DHT22;20159;51.072;13.526;2023-04-22T12:30:47;28.20;34.00
33865;DHT22;20159;51.072;13.526;2023-04-22T12:33:12;28.30;33.40
33865;DHT22;20159;51.072;13.526;2023-04-22T12:35:38;28.30;33.50
33865;DHT22;20159;51.072;13.526;2023-04-22T12:38:04;28.40;33.90
33865;DHT22;20159;51.072;13.526;2023-04-22T12:40:29;28.40;33.40
33865;DHT22;20159;51.072;13.526;2023-04-22T12:42:55;28.40;33.60
33865;DHT22;20159;51.072;13.526;2023-04-22T12:45:20;28.40;34.30
33865;DHT22;20159;51.072;13.526;2023-04-22T12:47:48;28.50;33.60
33865;DHT22;20159;51.072;13.526;2023-04-22T12:50:14;28.50;33.70
33865;DHT22;20159;51.072;13.526;2023-04-22T12:52:40;28.50;34.60
33865;DHT22;20159;51.072;13.526;2023-04-22T12:55:06;28.60;34.30
33865;DHT22;20159;51.072;13.526;2023-04-22T12:57:32;28.60;33.40
33865;DHT22;20159;51.072;13.526;2023-04-22T12:59:57;28.70;33.10
33865;DHT22;20159;51.072;13.526;2023-04-22T13:02:23;28.80;33.50
33865;DHT22;20159;51.072;13.526;2023-04-22T13:04:48;28.80;33.10
33865;DHT22;20159;51.072;13.526;2023-04-22T13:07:14;28.80;33.40
33865;DHT22;20159;51.072;13.526;2023-04-22T13:09:41;28.80;33.00
33865;DHT22;20159;51.072;13.526;2023-04-22T13:12:07;28.90;33.90
33865;DHT22;20159;51.072;13.526;2023-04-22T13:14:33;28.90;33.60
33865;DHT22;20159;51.072;13.526;2023-04-22T13:16:58;29.00;33.40
33865;DHT22;20159;51.072;13.526;2023-04-22T13:19:24;29.10;33.10
33865;DHT22;20159;51.072;13.526;2023-04-22T13:21:52;29.20;33.40
33865;DHT22;20159;51.072;13.526;2023-04-22T13:24:18;29.20;32.50
33865;DHT22;20159;51.072;13.526;2023-04-22T13:26:44;29.30;32.90
33865;DHT22;20159;51.072;13.526;2023-04-22T13:29:09;29.40;32.40
33865;DHT22;20159;51.072;13.526;2023-04-22T13:31:40;29.50;33.10
33865;DHT22;20159;51.072;13.526;2023-04-22T13:34:06;29.60;33.50
33865;DHT22;20159;51.072;13.526;2023-04-22T13:36:32;29.70;33.20
33865;DHT22;20159;51.072;13.526;2023-04-22T13:38:58;29.80;33.10
33865;DHT22;20159;51.072;13.526;2023-04-22T13:41:23;29.90;32.70
33865;DHT22;20159;51.072;13.526;2023-04-22T13:43:49;30.00;32.50
33865;DHT22;20159;51.072;13.526;2023-04-22T13:46:18;30.10;32.10
33865;DHT22;20159;51.072;13.526;2023-04-22T13:48:44;30.10;32.20
33865;DHT22;20159;51.072;13.526;2023-04-22T13:51:10;30.20;32.00
33865;DHT22;20159;51.072;13.526;2023-04-22T13:53:35;30.20;32.10
33865;DHT22;20159;51.072;13.526;2023-04-22T13:56:01;30.20;32.80
33865;DHT22;20159;51.072;13.526;2023-04-22T13:58:26;30.20;33.30
33865;DHT22;20159;51.072;13.526;2023-04-22T14:00:52;30.30;33.10
33865;DHT22;20159;51.072;13.526;2023-04-22T14:03:17;30.40;33.30
33865;DHT22;20159;51.072;13.526;2023-04-22T14:05:43;30.60;33.60
33865;DHT22;20159;51.072;13.526;2023-04-22T14:08:08;30.80;33.30
33865;DHT22;20159;51.072;13.526;2023-04-22T14:10:34;30.90;33.60
33865;DHT22;20159;51.072;13.526;2023-04-22T14:12:59;31.20;33.90
33865;DHT22;20159;51.072;13.526;2023-04-22T14:15:25;31.30;32.70
33865;DHT22;20159;51.072;13.526;2023-04-22T14:17:51;31.50;32.80
33865;DHT22;20159;51.072;13.526;2023-04-22T14:20:17;31.60;32.40
33865;DHT22;20159;51.072;13.526;2023-04-22T14:22:42;31.70;32.80
33865;DHT22;20159;51.072;13.526;2023-04-22T14:25:08;31.80;33.10
33865;DHT22;20159;51.072;13.526;2023-04-22T14:27:33;31.90;32.50
33865;DHT22;20159;51.072;13.526;2023-04-22T14:30:00;32.00;33.50
33865;DHT22;20159;51.072;13.526;2023-04-22T14:32:26;32.10;33.60
33865;DHT22;20159;51.072;13.526;2023-04-22T14:34:52;32.20;33.50
33865;DHT22;20159;51.072;13.526;2023-04-22T14:37:17;32.40;33.20
33865;DHT22;20159;51.072;13.526;2023-04-22T14:39:43;32.50;33.30
33865;DHT22;20159;51.072;13.526;2023-04-22T14:42:08;32.60;32.50
33865;DHT22;20159;51.072;13.526;2023-04-22T14:44:34;32.70;33.00
33865;DHT22;20159;51.072;13.526;2023-04-22T14:46:59;32.80;33.30
33865;DHT22;20159;51.072;13.526;2023-04-22T14:49:25;32.80;31.90
33865;DHT22;20159;51.072;13.526;2023-04-22T14:51:51;32.80;32.60
33865;DHT22;20159;51.072;13.526;2023-04-22T14:54:16;32.80;33.00
33865;DHT22;20159;51.072;13.526;2023-04-22T14:56:41;32.80;33.40
33865;DHT22;20159;51.072;13.526;2023-04-22T14:59:07;32.80;33.40
33865;DHT22;20159;51.072;13.526;2023-04-22T15:01:33;32.90;32.10
33865;DHT22;20159;51.072;13.526;2023-04-22T15:03:58;32.90;32.40
33865;DHT22;20159;51.072;13.526;2023-04-22T15:06:24;32.80;32.90
33865;DHT22;20159;51.072;13.526;2023-04-22T15:08:49;32.80;32.90
33865;DHT22;20159;51.072;13.526;2023-04-22T15:11:18;32.80;32.10
33865;DHT22;20159;51.072;13.526;2023-04-22T15:13:44;32.70;31.80
33865;DHT22;20159;51.072;13.526;2023-04-22T15:16:09;32.60;32.00
33865;DHT22;20159;51.072;13.526;2023-04-22T15:18:36;32.50;32.00
33865;DHT22;20159;51.072;13.526;2023-04-22T15:21:02;32.40;32.20
33865;DHT22;20159;51.072;13.526;2023-04-22T15:23:27;32.30;31.90
33865;DHT22;20159;51.072;13.526;2023-04-22T15:25:53;32.10;31.70
33865;DHT22;20159;51.072;13.526;2023-04-22T15:28:19;32.00;31.40
33865;DHT22;20159;51.072;13.526;2023-04-22T15:30:44;31.80;31.10
33865;DHT22;20159;51.072;13.526;2023-04-22T15:33:10;31.60;31.40
33865;DHT22;20159;51.072;13.526;2023-04-22T15:35:35;31.50;32.50